createdAt,value
2022-09-06T00:00:14.337Z,14.80
2022-09-06T00:02:42.243Z,16.92
2022-09-06T00:05:10.871Z,18.15
2022-09-06T00:07:37.879Z,16.83
2022-09-06T00:10:05.827Z,19.80
2022-09-06T00:12:33.136Z,17.77
2022-09-06T00:15:00.110Z,19.60
2022-09-06T00:17:27.197Z,17.62
2022-09-06T00:19:54.143Z,15.65
2022-09-06T00:22:21.132Z,17.25
2022-09-06T00:24:48.108Z,19.10
2022-09-06T00:27:15.199Z,20.10
2022-09-06T00:29:42.321Z,17.00
2022-09-06T00:32:09.342Z,18.73
2022-09-06T00:34:36.298Z,16.05
2022-09-06T00:37:03.365Z,20.10
2022-09-06T00:39:30.353Z,17.52
2022-09-06T00:41:57.560Z,20.25
2022-09-06T00:44:24.483Z,20.20
2022-09-06T00:46:54.634Z,17.37
2022-09-06T00:49:24.715Z,15.35
2022-09-06T00:52:01.899Z,16.90
2022-09-06T00:54:29.021Z,15.70
2022-09-06T00:56:57.786Z,12.25
2022-09-06T00:59:27.216Z,11.30
2022-09-06T01:01:54.356Z,10.13
2022-09-06T01:04:21.821Z,9.68
2022-09-06T01:06:57.586Z,11.10
2022-09-06T01:09:43.111Z,11.85
2022-09-06T01:12:19.843Z,12.23
2022-09-06T01:15:03.160Z,13.15
2022-09-06T01:17:42.329Z,13.90
2022-09-06T01:20:41.879Z,12.60
2022-09-06T01:23:33.021Z,14.90
2022-09-06T01:26:24.853Z,17.85
2022-09-06T01:28:54.095Z,15.77
2022-09-06T01:31:48.257Z,16.25
2022-09-06T01:34:37.984Z,13.40
2022-09-06T01:37:14.674Z,13.65
2022-09-06T01:39:42.439Z,15.50
2022-09-06T01:42:15.936Z,15.30
2022-09-06T01:45:12.102Z,13.75
2022-09-06T01:48:10.059Z,15.45
2022-09-06T01:51:10.544Z,17.77
2022-09-06T01:54:01.519Z,16.17
2022-09-06T01:56:47.705Z,14.30
2022-09-06T01:59:22.366Z,17.90
2022-09-06T02:02:16.686Z,15.80
2022-09-06T02:05:01.528Z,16.08
2022-09-06T02:07:31.350Z,13.82
2022-09-06T02:10:09.901Z,17.52
2022-09-06T02:12:40.844Z,14.85
2022-09-06T02:15:33.172Z,14.43
2022-09-06T02:18:09.019Z,14.65
2022-09-06T02:20:41.311Z,16.42
2022-09-06T02:23:10.004Z,17.35
2022-09-06T02:26:12.716Z,16.90
2022-09-06T02:28:40.025Z,14.30
2022-09-06T02:31:16.359Z,17.62
2022-09-06T02:33:46.550Z,12.75
2022-09-06T02:36:15.872Z,16.48
2022-09-06T02:38:44.982Z,16.83
2022-09-06T02:41:15.539Z,14.90
2022-09-06T02:43:43.614Z,14.32
2022-09-06T02:46:10.999Z,14.87
2022-09-06T02:48:37.967Z,12.43
2022-09-06T02:51:09.492Z,18.10
2022-09-06T02:53:36.678Z,12.05
2022-09-06T02:56:04.612Z,11.77
2022-09-06T02:58:31.723Z,11.80
2022-09-06T03:00:59.004Z,12.77
2022-09-06T03:03:27.451Z,12.82
2022-09-06T03:05:55.286Z,10.20
2022-09-06T03:08:25.819Z,10.82
2022-09-06T03:10:54.956Z,15.48
2022-09-06T03:13:22.403Z,8.82
2022-09-06T03:15:57.662Z,11.50
2022-09-06T03:18:25.925Z,9.48
2022-09-06T03:20:54.991Z,10.50
2022-09-06T03:23:24.439Z,14.87
2022-09-06T03:25:51.895Z,13.57
2022-09-06T03:28:19.954Z,16.20
2022-09-06T03:30:48.468Z,10.95
2022-09-06T03:33:16.298Z,16.65
2022-09-06T03:35:59.599Z,14.70
2022-09-06T03:38:28.320Z,19.67
2022-09-06T03:40:55.627Z,19.00
2022-09-06T03:43:24.706Z,14.77
2022-09-06T03:45:54.236Z,19.70
2022-09-06T03:48:23.015Z,15.27
2022-09-06T03:50:53.098Z,17.70
2022-09-06T03:53:21.078Z,16.30
2022-09-06T03:55:50.300Z,15.30
2022-09-06T03:58:18.969Z,13.57
2022-09-06T04:00:46.265Z,13.88
2022-09-06T04:03:13.400Z,16.12
2022-09-06T04:05:40.683Z,15.02
2022-09-06T04:08:07.594Z,22.92
2022-09-06T04:10:34.510Z,19.40
2022-09-06T04:13:01.442Z,14.30
2022-09-06T04:15:28.612Z,18.75
2022-09-06T04:17:55.659Z,14.32
2022-09-06T04:20:22.603Z,14.15
2022-09-06T04:22:49.533Z,13.57
2022-09-06T04:25:16.527Z,11.82
2022-09-06T04:27:43.469Z,9.90
2022-09-06T04:30:10.661Z,10.60
2022-09-06T04:32:37.662Z,12.07
2022-09-06T04:35:05.055Z,10.13
2022-09-06T04:37:32.536Z,11.90
2022-09-06T04:39:59.682Z,13.98
2022-09-06T04:42:26.786Z,12.13
2022-09-06T04:44:53.766Z,12.25
2022-09-06T04:47:20.951Z,12.07
2022-09-06T04:49:50.728Z,9.70
2022-09-06T04:52:18.008Z,8.85
2022-09-06T04:54:45.055Z,9.50
2022-09-06T04:57:12.040Z,9.45
2022-09-06T04:59:39.019Z,7.57
2022-09-06T05:02:06.020Z,7.30
2022-09-06T05:04:33.032Z,6.32
2022-09-06T05:07:07.417Z,6.00
2022-09-06T05:09:34.909Z,5.47
2022-09-06T05:12:02.026Z,5.35
2022-09-06T05:14:29.736Z,5.35
2022-09-06T05:16:56.904Z,4.00
2022-09-06T05:19:23.867Z,4.15
2022-09-06T05:21:53.918Z,4.78
2022-09-06T05:24:20.923Z,3.75
2022-09-06T05:26:47.963Z,4.90
2022-09-06T05:29:14.982Z,3.83
2022-09-06T05:31:41.989Z,6.28
2022-09-06T05:34:09.030Z,5.80
2022-09-06T05:36:36.086Z,6.50
2022-09-06T05:39:03.146Z,7.20
2022-09-06T05:41:30.092Z,7.28
2022-09-06T05:43:57.100Z,6.12
2022-09-06T05:46:24.138Z,6.75
2022-09-06T05:48:55.540Z,8.88
2022-09-06T05:51:22.524Z,9.10
2022-09-06T05:53:49.502Z,11.00
2022-09-06T05:56:16.962Z,13.10
2022-09-06T05:58:43.934Z,14.18
2022-09-06T06:01:28.103Z,12.63
2022-09-06T06:04:00.594Z,14.07
2022-09-06T06:06:30.070Z,14.55
2022-09-06T06:08:57.157Z,13.95
2022-09-06T06:11:25.990Z,13.15
2022-09-06T06:13:53.289Z,16.70
2022-09-06T06:16:22.635Z,17.27
2022-09-06T06:18:52.324Z,18.35
2022-09-06T06:21:25.152Z,15.50
2022-09-06T06:23:58.216Z,15.15
2022-09-06T06:26:26.713Z,16.00
2022-09-06T06:28:54.030Z,18.45
2022-09-06T06:31:22.672Z,16.50
2022-09-06T06:33:50.346Z,15.00
2022-09-06T06:36:17.405Z,16.23
2022-09-06T06:38:46.034Z,14.68
2022-09-06T06:41:15.553Z,18.35
2022-09-06T06:43:42.819Z,22.52
2022-09-06T06:46:15.411Z,17.35
2022-09-06T06:48:43.922Z,16.80
2022-09-06T06:51:16.872Z,16.55
2022-09-06T06:53:47.506Z,16.85
2022-09-06T06:56:18.693Z,16.85
2022-09-06T06:58:47.935Z,17.87
2022-09-06T07:01:20.477Z,17.58
2022-09-06T07:03:47.887Z,16.95
2022-09-06T07:06:15.500Z,16.25
2022-09-06T07:08:43.455Z,17.25
2022-09-06T07:11:13.526Z,31.73
2022-09-06T07:13:40.786Z,16.40
2022-09-06T07:16:12.458Z,22.05
2022-09-06T07:18:42.397Z,31.23
2022-09-06T07:24:09.014Z,31.27
2022-09-06T07:26:39.156Z,35.35
2022-09-06T07:29:07.370Z,19.90
2022-09-06T07:34:25.222Z,22.52
2022-09-06T07:36:56.380Z,21.37
2022-09-06T07:39:23.610Z,22.10
2022-09-06T07:41:50.621Z,23.00
2022-09-06T07:44:17.691Z,24.95
2022-09-06T07:46:44.825Z,24.08
2022-09-06T07:49:12.166Z,24.40
2022-09-06T07:51:39.252Z,23.23
2022-09-06T07:54:28.657Z,24.17
2022-09-06T07:56:54.091Z,23.75
2022-09-06T07:59:21.051Z,24.87
2022-09-06T08:01:48.417Z,24.05
2022-09-06T08:04:15.553Z,24.33
2022-09-06T08:09:35.307Z,23.08
2022-09-06T08:12:07.541Z,23.83
2022-09-06T08:14:35.168Z,21.73
2022-09-06T08:17:03.014Z,23.85
2022-09-06T08:19:29.972Z,24.00
2022-09-06T08:21:57.164Z,23.60
2022-09-06T08:24:24.500Z,23.65
2022-09-06T08:26:51.550Z,24.70
2022-09-06T08:29:20.076Z,24.30
2022-09-06T08:31:47.567Z,21.30
2022-09-06T08:34:15.519Z,24.33
2022-09-06T08:36:43.395Z,23.77
2022-09-06T08:39:11.210Z,21.00
2022-09-06T08:42:03.106Z,25.52
2022-09-06T08:47:21.916Z,23.85
2022-09-06T08:49:52.493Z,21.65
2022-09-06T08:52:49.709Z,24.15
2022-09-06T08:55:40.914Z,20.37
2022-09-06T08:58:33.758Z,21.95
2022-09-06T09:01:11.678Z,22.73
2022-09-06T09:03:42.041Z,22.35
2022-09-06T09:06:10.358Z,23.15
2022-09-06T09:09:01.829Z,25.17
2022-09-06T09:11:30.363Z,25.23
2022-09-06T09:14:22.441Z,19.42
2022-09-06T09:16:55.131Z,18.08
2022-09-06T09:19:22.479Z,14.63
2022-09-06T09:21:49.476Z,14.50
2022-09-06T09:24:16.428Z,13.02
2022-09-06T09:27:11.346Z,15.15
2022-09-06T09:32:44.748Z,15.10
2022-09-06T09:35:37.271Z,15.60
2022-09-06T09:38:11.809Z,14.20
2022-09-06T09:40:56.535Z,13.27
2022-09-06T09:43:24.618Z,13.57
2022-09-06T09:46:22.575Z,14.20
2022-09-06T09:49:11.036Z,12.70
2022-09-06T09:51:43.538Z,13.90
2022-09-06T09:54:13.721Z,14.60
2022-09-06T09:56:45.885Z,8.65
2022-09-06T10:00:08.525Z,5.78
2022-09-06T10:02:40.160Z,4.30
2022-09-06T10:05:10.118Z,5.10
2022-09-06T10:07:42.764Z,6.62
2022-09-06T10:10:32.364Z,9.23
2022-09-06T10:13:22.656Z,9.98
2022-09-06T10:15:52.016Z,9.57
2022-09-06T10:18:30.864Z,10.35
2022-09-06T10:21:05.551Z,9.00
2022-09-06T10:26:55.432Z,8.70
2022-09-06T10:29:53.165Z,7.93
2022-09-06T10:32:37.754Z,7.55
2022-09-06T10:35:16.907Z,9.02
2022-09-06T10:37:46.592Z,9.23
2022-09-06T10:40:24.947Z,7.80
2022-09-06T10:42:54.362Z,6.80
2022-09-06T10:45:24.612Z,7.80
2022-09-06T10:48:14.919Z,8.25
2022-09-06T10:50:54.251Z,9.00
2022-09-06T10:53:33.230Z,7.62
2022-09-06T10:56:24.618Z,6.80
2022-09-06T11:02:27.868Z,8.20
2022-09-06T11:10:49.994Z,7.53
2022-09-06T11:13:23.223Z,8.63
2022-09-06T11:16:14.734Z,8.43
2022-09-06T11:18:59.128Z,7.90
2022-09-06T11:21:43.928Z,7.43
2022-09-06T11:24:27.561Z,9.13
2022-09-06T11:27:12.584Z,8.05
2022-09-06T11:29:46.367Z,8.45
2022-09-06T11:32:40.010Z,8.15
2022-09-06T11:35:11.108Z,8.90
2022-09-06T11:37:43.941Z,8.48
2022-09-06T11:40:28.189Z,8.88
2022-09-06T11:42:55.614Z,9.55
2022-09-06T11:45:41.955Z,8.73
2022-09-06T11:48:24.336Z,9.85
2022-09-06T11:50:54.339Z,8.77
2022-09-06T11:53:23.965Z,8.93
2022-09-06T11:56:09.847Z,8.57
2022-09-06T11:58:45.919Z,9.40
2022-09-06T12:01:12.854Z,9.05
2022-09-06T12:04:05.923Z,8.95
2022-09-06T12:06:40.885Z,8.10
2022-09-06T12:09:31.019Z,9.00
2022-09-06T12:11:59.291Z,9.05
2022-09-06T12:14:34.299Z,9.10
2022-09-06T12:17:01.458Z,9.23
2022-09-06T12:19:46.367Z,8.88
2022-09-06T12:22:32.824Z,8.77
2022-09-06T12:25:22.742Z,9.93
2022-09-06T12:28:01.779Z,10.05
2022-09-06T12:30:36.192Z,9.38
2022-09-06T12:33:11.268Z,12.00
2022-09-06T12:38:25.412Z,10.30
2022-09-06T12:40:58.421Z,10.73
2022-09-06T12:43:26.058Z,9.45
2022-09-06T12:45:53.171Z,11.43
2022-09-06T12:48:33.650Z,10.80
2022-09-06T12:51:19.548Z,11.57
2022-09-06T12:54:19.185Z,11.27
2022-09-06T12:56:46.112Z,10.20
2022-09-06T12:59:19.525Z,10.40
2022-09-06T13:02:05.321Z,11.88
2022-09-06T13:04:41.189Z,10.70
2022-09-06T13:07:14.745Z,11.10
2022-09-06T13:09:49.263Z,9.98
2022-09-06T13:12:39.396Z,10.48
2022-09-06T13:15:17.820Z,10.05
2022-09-06T13:17:45.300Z,10.23
2022-09-06T13:20:15.696Z,10.38
2022-09-06T13:22:47.883Z,10.73
2022-09-06T13:25:22.763Z,8.45
2022-09-06T13:27:51.490Z,9.98
2022-09-06T13:30:34.823Z,10.20
2022-09-06T13:33:03.668Z,11.40
2022-09-06T13:35:34.574Z,11.15
2022-09-06T13:38:22.241Z,11.38
2022-09-06T13:41:12.514Z,10.38
2022-09-06T13:43:48.619Z,10.80
2022-09-06T13:46:16.227Z,9.73
2022-09-06T13:48:44.628Z,11.25
2022-09-06T13:51:12.047Z,10.35
2022-09-06T13:53:39.029Z,11.75
2022-09-06T13:56:08.721Z,9.30
2022-09-06T13:58:36.510Z,10.18
2022-09-06T14:01:05.269Z,9.40
2022-09-06T14:03:32.990Z,12.13
2022-09-06T14:06:00.527Z,11.77
2022-09-06T14:08:38.761Z,11.90
2022-09-06T14:11:10.762Z,12.13
2022-09-06T14:13:37.813Z,12.10
2022-09-06T14:16:05.653Z,11.30
2022-09-06T14:18:32.607Z,11.60
2022-09-06T14:20:59.557Z,11.77
2022-09-06T14:23:26.946Z,12.18
2022-09-06T14:26:01.911Z,11.60
2022-09-06T14:28:32.212Z,11.73
2022-09-06T14:30:59.228Z,11.07
2022-09-06T14:33:26.296Z,10.65
2022-09-06T14:35:53.276Z,12.02
2022-09-06T14:38:20.262Z,12.82
2022-09-06T14:40:47.656Z,12.80
2022-09-06T14:43:16.106Z,12.85
2022-09-06T14:45:43.083Z,8.32
2022-09-06T14:48:10.290Z,4.87
2022-09-06T14:50:37.554Z,8.65
2022-09-06T14:53:15.027Z,10.48
2022-09-06T14:55:51.198Z,11.02
2022-09-06T14:58:18.226Z,11.35
2022-09-06T15:00:46.693Z,11.27
2022-09-06T15:03:13.680Z,12.95
2022-09-06T15:05:40.670Z,14.75
2022-09-06T15:08:07.676Z,16.35
2022-09-06T15:10:34.668Z,14.23
2022-09-06T15:13:01.741Z,15.70
2022-09-06T15:15:28.837Z,14.55
2022-09-06T15:17:55.895Z,14.38
2022-09-06T15:20:22.813Z,14.60
2022-09-06T15:22:56.344Z,16.80
2022-09-06T15:25:54.458Z,14.25
2022-09-06T15:28:21.586Z,16.25
2022-09-06T15:30:49.184Z,14.65
2022-09-06T15:33:16.399Z,15.00
2022-09-06T15:35:44.189Z,15.35
2022-09-06T15:38:12.221Z,14.80
2022-09-06T15:40:39.313Z,17.60
2022-09-06T15:43:07.621Z,13.88
2022-09-06T15:45:47.438Z,15.65
2022-09-06T15:48:17.870Z,16.35
2022-09-06T15:50:51.726Z,15.75
2022-09-06T15:53:19.832Z,15.18
2022-09-06T15:55:56.283Z,15.77
2022-09-06T15:58:25.203Z,15.98
2022-09-06T16:01:11.757Z,14.20
2022-09-06T16:03:42.057Z,14.82
2022-09-06T16:06:27.897Z,15.43
2022-09-06T16:09:04.893Z,14.25
2022-09-06T16:11:36.949Z,18.23
2022-09-06T16:14:06.254Z,15.00
2022-09-06T16:16:35.016Z,15.23
2022-09-06T16:19:02.601Z,15.57
2022-09-06T16:21:32.354Z,14.27
2022-09-06T16:24:08.239Z,14.15
2022-09-06T16:26:38.291Z,15.73
2022-09-06T16:29:07.260Z,16.77
2022-09-06T16:31:39.335Z,15.60
2022-09-06T16:34:07.946Z,14.68
2022-09-06T16:36:35.131Z,14.90
2022-09-06T16:39:02.509Z,15.32
2022-09-06T16:41:40.898Z,13.90
2022-09-06T16:44:09.825Z,14.27
2022-09-06T16:46:37.080Z,15.02
2022-09-06T16:49:04.700Z,13.27
2022-09-06T16:51:32.084Z,12.80
2022-09-06T16:54:00.227Z,13.55
2022-09-06T16:56:33.294Z,11.40
2022-09-06T16:59:03.157Z,9.20
2022-09-06T17:01:31.425Z,9.70
2022-09-06T17:04:02.296Z,10.90
2022-09-06T17:06:30.640Z,11.38
2022-09-06T17:08:58.720Z,13.20
2022-09-06T17:11:27.037Z,13.90
2022-09-06T17:13:55.502Z,12.77
2022-09-06T17:16:41.431Z,12.65
2022-09-06T17:19:09.563Z,13.05
2022-09-06T17:21:37.480Z,15.02
2022-09-06T17:24:05.661Z,14.00
2022-09-06T17:26:35.118Z,15.43
2022-09-06T17:29:02.124Z,15.82
2022-09-06T17:31:29.458Z,17.02
2022-09-06T17:33:56.501Z,16.00
2022-09-06T17:36:30.569Z,16.25
2022-09-06T17:39:01.945Z,15.23
2022-09-06T17:41:33.608Z,16.05
2022-09-06T17:44:00.601Z,13.85
2022-09-06T17:46:29.087Z,15.65
2022-09-06T17:48:56.808Z,17.17
2022-09-06T17:51:24.723Z,15.65
2022-09-06T17:53:53.056Z,17.35
2022-09-06T17:56:20.967Z,17.12
2022-09-06T17:58:56.411Z,17.83
2022-09-06T18:01:25.106Z,16.48
2022-09-06T18:03:52.948Z,17.75
2022-09-06T18:06:24.803Z,16.52
2022-09-06T18:08:55.679Z,15.27
2022-09-06T18:11:28.275Z,15.93
2022-09-06T18:14:03.012Z,16.92
2022-09-06T18:16:31.354Z,14.90
2022-09-06T18:19:00.667Z,16.45
2022-09-06T18:21:30.991Z,15.40
2022-09-06T18:23:58.735Z,16.65
2022-09-06T18:26:26.451Z,15.32
2022-09-06T18:28:53.803Z,17.15
2022-09-06T18:31:23.235Z,16.83
2022-09-06T18:33:51.034Z,16.55
2022-09-06T18:36:19.631Z,17.37
2022-09-06T18:38:46.990Z,17.08
2022-09-06T18:41:34.465Z,16.15
2022-09-06T18:44:05.705Z,17.35
2022-09-06T18:46:34.722Z,17.48
2022-09-06T18:49:02.181Z,17.65
2022-09-06T18:51:29.365Z,18.08
2022-09-06T18:53:57.857Z,18.02
2022-09-06T18:56:25.344Z,18.08
2022-09-06T18:59:00.139Z,19.95
2022-09-06T19:01:29.405Z,18.52
2022-09-06T19:04:00.126Z,16.52
2022-09-06T19:06:29.381Z,17.25
2022-09-06T19:09:05.494Z,18.98
2022-09-06T19:11:33.174Z,18.60
2022-09-06T19:14:00.441Z,20.12
2022-09-06T19:16:29.084Z,18.67
2022-09-06T19:18:57.033Z,19.55
2022-09-06T19:21:25.570Z,19.62
2022-09-06T19:24:00.692Z,19.45
2022-09-06T19:26:31.335Z,19.87
2022-09-06T19:29:00.670Z,20.25
2022-09-06T19:31:30.299Z,19.80
2022-09-06T19:33:58.925Z,19.95
2022-09-06T19:36:27.842Z,20.20
2022-09-06T19:39:05.030Z,22.02
2022-09-06T19:41:35.834Z,22.55
2022-09-06T19:44:14.855Z,21.67
2022-09-06T19:46:45.948Z,20.05
2022-09-06T19:49:17.579Z,21.23
2022-09-06T19:51:46.686Z,22.75
2022-09-06T19:54:17.129Z,22.83
2022-09-06T19:56:45.205Z,22.95
2022-09-06T19:59:13.724Z,22.00
2022-09-06T20:01:42.610Z,23.23
2022-09-06T20:04:11.270Z,22.35
2022-09-06T20:06:39.028Z,24.33
2022-09-06T20:09:09.078Z,22.25
2022-09-06T20:11:37.928Z,22.77
2022-09-06T20:14:06.905Z,22.30
2022-09-06T20:16:37.082Z,21.30
2022-09-06T20:19:07.905Z,20.10
2022-09-06T20:21:35.293Z,22.30
2022-09-06T20:24:02.540Z,24.70
2022-09-06T20:26:30.572Z,22.80
2022-09-06T20:28:59.533Z,24.80
2022-09-06T20:31:29.791Z,24.98
2022-09-06T20:33:59.917Z,27.17
2022-09-06T20:36:27.698Z,24.02
2022-09-06T20:38:54.675Z,23.85
2022-09-06T20:41:23.815Z,22.62
2022-09-06T20:43:55.624Z,25.83
2022-09-06T20:46:24.941Z,24.87
2022-09-06T20:48:52.638Z,26.05
2022-09-06T20:51:21.880Z,25.75
2022-09-06T20:53:53.397Z,25.37
2022-09-06T20:56:23.481Z,27.98
2022-09-06T20:58:57.696Z,25.20
2022-09-06T21:01:32.091Z,26.35
2022-09-06T21:04:00.757Z,25.45
2022-09-06T21:06:30.440Z,25.10
2022-09-06T21:09:00.512Z,25.08
2022-09-06T21:11:28.004Z,21.40
2022-09-06T21:14:01.252Z,21.80
2022-09-06T21:16:29.797Z,20.52
2022-09-06T21:19:12.864Z,14.68
2022-09-06T21:21:40.770Z,11.77
2022-09-06T21:24:12.962Z,9.82
2022-09-06T21:26:44.886Z,5.95
